sensor_id;sensor_type;location;lat;lon;timestamp;P1;durP1;ratioP1;P2;durP2;ratioP2
14766;SDS011;7475;53.558;9.970;2023-08-30T00:02:19;3.90;;;3.50;;
14766;SDS011;7475;53.558;9.970;2023-08-30T00:04:44;5.57;;;3.72;;
14766;SDS011;7475;53.558;9.970;2023-08-30T00:07:15;4.22;;;3.67;;
14766;SDS011;7475;53.558;9.970;2023-08-30T00:09:40;4.67;;;3.70;;
14766;SDS011;7475;53.558;9.970;2023-08-30T00:12:06;4.30;;;3.90;;
14766;SDS011;7475;53.558;9.970;2023-08-30T00:14:31;6.47;;;4.10;;
14766;SDS011;7475;53.558;9.970;2023-08-30T00:16:57;4.28;;;3.70;;
14766;SDS011;7475;53.558;9.970;2023-08-30T00:19:22;4.10;;;3.80;;
14766;SDS011;7475;53.558;9.970;2023-08-30T00:21:48;4.55;;;3.72;;
14766;SDS011;7475;53.558;9.970;2023-08-30T00:24:13;4.15;;;3.72;;
14766;SDS011;7475;53.558;9.970;2023-08-30T00:26:39;5.50;;;3.50;;
14766;SDS011;7475;53.558;9.970;2023-08-30T00:29:04;5.28;;;3.97;;
14766;SDS011;7475;53.558;9.970;2023-08-30T00:31:29;4.50;;;4.10;;
14766;SDS011;7475;53.558;9.970;2023-08-30T00:33:54;5.83;;;3.87;;
14766;SDS011;7475;53.558;9.970;2023-08-30T00:36:19;4.30;;;3.90;;
14766;SDS011;7475;53.558;9.970;2023-08-30T00:38:46;5.43;;;4.00;;
14766;SDS011;7475;53.558;9.970;2023-08-30T00:41:11;5.00;;;3.80;;
14766;SDS011;7475;53.558;9.970;2023-08-30T00:43:36;4.95;;;4.05;;
14766;SDS011;7475;53.558;9.970;2023-08-30T00:46:01;5.80;;;5.00;;
14766;SDS011;7475;53.558;9.970;2023-08-30T00:48:27;4.47;;;4.07;;
14766;SDS011;7475;53.558;9.970;2023-08-30T00:50:52;5.15;;;4.03;;
14766;SDS011;7475;53.558;9.970;2023-08-30T00:53:17;5.25;;;4.60;;
14766;SDS011;7475;53.558;9.970;2023-08-30T00:55:43;5.93;;;4.75;;
14766;SDS011;7475;53.558;9.970;2023-08-30T00:58:08;5.18;;;4.35;;
14766;SDS011;7475;53.558;9.970;2023-08-30T01:00:34;7.72;;;4.72;;
14766;SDS011;7475;53.558;9.970;2023-08-30T01:02:59;5.07;;;3.90;;
14766;SDS011;7475;53.558;9.970;2023-08-30T01:05:24;4.60;;;4.13;;
14766;SDS011;7475;53.558;9.970;2023-08-30T01:07:50;4.50;;;3.63;;
14766;SDS011;7475;53.558;9.970;2023-08-30T01:10:15;4.82;;;4.38;;
14766;SDS011;7475;53.558;9.970;2023-08-30T01:12:43;8.90;;;4.40;;
14766;SDS011;7475;53.558;9.970;2023-08-30T01:15:12;6.25;;;5.63;;
14766;SDS011;7475;53.558;9.970;2023-08-30T01:17:39;8.93;;;8.07;;
14766;SDS011;7475;53.558;9.970;2023-08-30T01:20:06;4.40;;;4.00;;
14766;SDS011;7475;53.558;9.970;2023-08-30T01:23:01;5.30;;;3.95;;
14766;SDS011;7475;53.558;9.970;2023-08-30T01:25:32;6.05;;;4.18;;
14766;SDS011;7475;53.558;9.970;2023-08-30T01:27:59;5.10;;;4.20;;
14766;SDS011;7475;53.558;9.970;2023-08-30T01:30:26;5.18;;;4.32;;
14766;SDS011;7475;53.558;9.970;2023-08-30T01:32:52;4.72;;;4.18;;
14766;SDS011;7475;53.558;9.970;2023-08-30T01:35:17;4.22;;;3.72;;
14766;SDS011;7475;53.558;9.970;2023-08-30T01:37:47;6.40;;;5.72;;
14766;SDS011;7475;53.558;9.970;2023-08-30T01:40:13;5.18;;;4.68;;
14766;SDS011;7475;53.558;9.970;2023-08-30T01:42:39;5.07;;;4.60;;
14766;SDS011;7475;53.558;9.970;2023-08-30T01:45:05;8.38;;;5.32;;
14766;SDS011;7475;53.558;9.970;2023-08-30T01:47:33;6.65;;;4.80;;
14766;SDS011;7475;53.558;9.970;2023-08-30T01:49:59;7.45;;;5.68;;
14766;SDS011;7475;53.558;9.970;2023-08-30T01:52:24;6.80;;;5.63;;
14766;SDS011;7475;53.558;9.970;2023-08-30T01:54:50;9.70;;;6.75;;
14766;SDS011;7475;53.558;9.970;2023-08-30T01:57:16;8.25;;;7.18;;
14766;SDS011;7475;53.558;9.970;2023-08-30T01:59:41;7.18;;;6.50;;
14766;SDS011;7475;53.558;9.970;2023-08-30T02:02:06;8.35;;;6.70;;
14766;SDS011;7475;53.558;9.970;2023-08-30T02:04:32;9.80;;;7.13;;
14766;SDS011;7475;53.558;9.970;2023-08-30T02:07:02;7.38;;;6.63;;
14766;SDS011;7475;53.558;9.970;2023-08-30T02:09:28;9.70;;;7.70;;
14766;SDS011;7475;53.558;9.970;2023-08-30T02:11:54;11.32;;;9.35;;
14766;SDS011;7475;53.558;9.970;2023-08-30T02:14:20;10.13;;;9.10;;
14766;SDS011;7475;53.558;9.970;2023-08-30T02:16:46;9.35;;;8.55;;
14766;SDS011;7475;53.558;9.970;2023-08-30T02:19:12;9.95;;;8.95;;
14766;SDS011;7475;53.558;9.970;2023-08-30T02:21:39;9.55;;;8.65;;
14766;SDS011;7475;53.558;9.970;2023-08-30T02:24:05;9.48;;;8.48;;
14766;SDS011;7475;53.558;9.970;2023-08-30T02:26:30;9.13;;;8.27;;
14766;SDS011;7475;53.558;9.970;2023-08-30T02:28:55;11.57;;;8.23;;
14766;SDS011;7475;53.558;9.970;2023-08-30T02:31:20;9.67;;;8.67;;
14766;SDS011;7475;53.558;9.970;2023-08-30T02:33:45;10.03;;;8.93;;
14766;SDS011;7475;53.558;9.970;2023-08-30T02:36:11;10.45;;;9.10;;
14766;SDS011;7475;53.558;9.970;2023-08-30T02:38:36;9.60;;;8.53;;
14766;SDS011;7475;53.558;9.970;2023-08-30T02:41:01;12.20;;;8.23;;
14766;SDS011;7475;53.558;9.970;2023-08-30T02:43:26;8.27;;;7.43;;
14766;SDS011;7475;53.558;9.970;2023-08-30T02:45:51;8.80;;;7.83;;
14766;SDS011;7475;53.558;9.970;2023-08-30T02:48:17;11.25;;;8.48;;
14766;SDS011;7475;53.558;9.970;2023-08-30T02:50:42;9.60;;;8.70;;
14766;SDS011;7475;53.558;9.970;2023-08-30T02:53:07;9.10;;;8.30;;
14766;SDS011;7475;53.558;9.970;2023-08-30T02:55:33;9.85;;;8.85;;
14766;SDS011;7475;53.558;9.970;2023-08-30T02:57:58;9.63;;;8.50;;
14766;SDS011;7475;53.558;9.970;2023-08-30T03:00:23;9.00;;;8.10;;
14766;SDS011;7475;53.558;9.970;2023-08-30T03:02:49;9.67;;;8.37;;
14766;SDS011;7475;53.558;9.970;2023-08-30T03:05:14;10.00;;;9.00;;
14766;SDS011;7475;53.558;9.970;2023-08-30T03:07:39;11.18;;;9.32;;
14766;SDS011;7475;53.558;9.970;2023-08-30T03:10:05;11.77;;;8.83;;
14766;SDS011;7475;53.558;9.970;2023-08-30T03:12:30;10.38;;;8.35;;
14766;SDS011;7475;53.558;9.970;2023-08-30T03:14:55;10.23;;;9.23;;
14766;SDS011;7475;53.558;9.970;2023-08-30T03:17:20;9.68;;;8.68;;
14766;SDS011;7475;53.558;9.970;2023-08-30T03:19:46;9.33;;;8.17;;
14766;SDS011;7475;53.558;9.970;2023-08-30T03:22:11;8.80;;;8.00;;
14766;SDS011;7475;53.558;9.970;2023-08-30T03:24:36;8.57;;;7.60;;
14766;SDS011;7475;53.558;9.970;2023-08-30T03:27:01;11.37;;;7.03;;
14766;SDS011;7475;53.558;9.970;2023-08-30T03:29:26;7.63;;;6.90;;
14766;SDS011;7475;53.558;9.970;2023-08-30T03:31:52;7.30;;;6.60;;
14766;SDS011;7475;53.558;9.970;2023-08-30T03:34:17;11.20;;;6.87;;
14766;SDS011;7475;53.558;9.970;2023-08-30T03:36:42;7.47;;;6.50;;
14766;SDS011;7475;53.558;9.970;2023-08-30T03:39:09;7.03;;;5.90;;
14766;SDS011;7475;53.558;9.970;2023-08-30T03:41:34;8.25;;;5.80;;
14766;SDS011;7475;53.558;9.970;2023-08-30T03:43:59;6.70;;;5.73;;
14766;SDS011;7475;53.558;9.970;2023-08-30T03:46:24;6.90;;;6.10;;
14766;SDS011;7475;53.558;9.970;2023-08-30T03:48:49;8.90;;;6.13;;
14766;SDS011;7475;53.558;9.970;2023-08-30T03:51:15;6.93;;;6.20;;
14766;SDS011;7475;53.558;9.970;2023-08-30T03:53:40;6.63;;;6.03;;
14766;SDS011;7475;53.558;9.970;2023-08-30T03:56:05;6.53;;;5.93;;
14766;SDS011;7475;53.558;9.970;2023-08-30T03:58:31;7.40;;;6.70;;
14766;SDS011;7475;53.558;9.970;2023-08-30T04:00:56;6.93;;;6.22;;
14766;SDS011;7475;53.558;9.970;2023-08-30T04:03:21;7.80;;;5.97;;
14766;SDS011;7475;53.558;9.970;2023-08-30T04:05:47;6.80;;;6.10;;
14766;SDS011;7475;53.558;9.970;2023-08-30T04:08:12;8.57;;;6.50;;
14766;SDS011;7475;53.558;9.970;2023-08-30T04:10:38;6.50;;;5.80;;
14766;SDS011;7475;53.558;9.970;2023-08-30T04:13:03;7.20;;;6.15;;
14766;SDS011;7475;53.558;9.970;2023-08-30T04:15:29;9.70;;;6.00;;
14766;SDS011;7475;53.558;9.970;2023-08-30T04:17:54;6.35;;;5.75;;
14766;SDS011;7475;53.558;9.970;2023-08-30T04:20:19;7.20;;;5.90;;
14766;SDS011;7475;53.558;9.970;2023-08-30T04:22:44;6.82;;;5.85;;
14766;SDS011;7475;53.558;9.970;2023-08-30T04:25:10;6.20;;;5.65;;
14766;SDS011;7475;53.558;9.970;2023-08-30T04:27:36;8.05;;;6.50;;
14766;SDS011;7475;53.558;9.970;2023-08-30T04:30:01;6.90;;;6.00;;
14766;SDS011;7475;53.558;9.970;2023-08-30T04:32:27;6.07;;;5.47;;
14766;SDS011;7475;53.558;9.970;2023-08-30T04:34:52;6.73;;;6.03;;
14766;SDS011;7475;53.558;9.970;2023-08-30T04:37:17;6.87;;;6.27;;
14766;SDS011;7475;53.558;9.970;2023-08-30T04:39:42;7.13;;;5.73;;
14766;SDS011;7475;53.558;9.970;2023-08-30T04:42:07;7.00;;;5.80;;
14766;SDS011;7475;53.558;9.970;2023-08-30T04:44:33;6.33;;;5.60;;
14766;SDS011;7475;53.558;9.970;2023-08-30T04:46:58;7.20;;;6.00;;
14766;SDS011;7475;53.558;9.970;2023-08-30T04:49:23;6.90;;;5.30;;
14766;SDS011;7475;53.558;9.970;2023-08-30T04:51:50;6.75;;;6.05;;
14766;SDS011;7475;53.558;9.970;2023-08-30T04:54:15;6.40;;;5.80;;
14766;SDS011;7475;53.558;9.970;2023-08-30T04:56:40;8.32;;;6.15;;
14766;SDS011;7475;53.558;9.970;2023-08-30T04:59:05;7.03;;;6.05;;
14766;SDS011;7475;53.558;9.970;2023-08-30T05:01:30;6.80;;;5.53;;
14766;SDS011;7475;53.558;9.970;2023-08-30T05:03:56;8.97;;;6.40;;
14766;SDS011;7475;53.558;9.970;2023-08-30T05:06:21;9.52;;;5.18;;
14766;SDS011;7475;53.558;9.970;2023-08-30T05:08:46;6.35;;;5.63;;
14766;SDS011;7475;53.558;9.970;2023-08-30T05:11:11;7.78;;;5.93;;
14766;SDS011;7475;53.558;9.970;2023-08-30T05:13:36;8.82;;;6.00;;
14766;SDS011;7475;53.558;9.970;2023-08-30T05:16:02;8.87;;;7.97;;
14766;SDS011;7475;53.558;9.970;2023-08-30T05:18:27;10.15;;;6.10;;
14766;SDS011;7475;53.558;9.970;2023-08-30T05:20:52;6.50;;;5.78;;
14766;SDS011;7475;53.558;9.970;2023-08-30T05:23:17;8.35;;;5.65;;
14766;SDS011;7475;53.558;9.970;2023-08-30T05:25:42;6.65;;;6.05;;
14766;SDS011;7475;53.558;9.970;2023-08-30T05:28:08;10.90;;;6.63;;
14766;SDS011;7475;53.558;9.970;2023-08-30T05:30:33;7.23;;;5.70;;
14766;SDS011;7475;53.558;9.970;2023-08-30T05:32:58;6.67;;;5.77;;
14766;SDS011;7475;53.558;9.970;2023-08-30T05:35:23;7.33;;;5.87;;
14766;SDS011;7475;53.558;9.970;2023-08-30T05:37:48;10.03;;;6.13;;
14766;SDS011;7475;53.558;9.970;2023-08-30T05:40:15;8.07;;;6.40;;
14766;SDS011;7475;53.558;9.970;2023-08-30T05:42:42;8.45;;;5.93;;
14766;SDS011;7475;53.558;9.970;2023-08-30T05:45:07;8.98;;;6.20;;
14766;SDS011;7475;53.558;9.970;2023-08-30T05:47:32;6.82;;;6.15;;
14766;SDS011;7475;53.558;9.970;2023-08-30T05:49:58;6.75;;;6.05;;
14766;SDS011;7475;53.558;9.970;2023-08-30T05:52:23;8.48;;;7.68;;
14766;SDS011;7475;53.558;9.970;2023-08-30T05:54:50;16.25;;;12.43;;
14766;SDS011;7475;53.558;9.970;2023-08-30T05:57:15;9.75;;;6.70;;
14766;SDS011;7475;53.558;9.970;2023-08-30T05:59:40;9.03;;;6.20;;
14766;SDS011;7475;53.558;9.970;2023-08-30T06:02:05;6.95;;;6.13;;
14766;SDS011;7475;53.558;9.970;2023-08-30T06:04:31;7.70;;;5.80;;
14766;SDS011;7475;53.558;9.970;2023-08-30T06:06:56;7.53;;;6.03;;
14766;SDS011;7475;53.558;9.970;2023-08-30T06:09:21;7.00;;;6.03;;
14766;SDS011;7475;53.558;9.970;2023-08-30T06:11:46;8.45;;;6.55;;
14766;SDS011;7475;53.558;9.970;2023-08-30T06:14:11;6.20;;;5.60;;
14766;SDS011;7475;53.558;9.970;2023-08-30T06:16:37;7.03;;;5.77;;
14766;SDS011;7475;53.558;9.970;2023-08-30T06:19:02;6.65;;;5.90;;
14766;SDS011;7475;53.558;9.970;2023-08-30T06:21:27;9.95;;;5.57;;
14766;SDS011;7475;53.558;9.970;2023-08-30T06:23:52;8.40;;;5.70;;
14766;SDS011;7475;53.558;9.970;2023-08-30T06:26:18;8.20;;;5.28;;
14766;SDS011;7475;53.558;9.970;2023-08-30T06:28:43;8.85;;;5.53;;
14766;SDS011;7475;53.558;9.970;2023-08-30T06:31:09;10.05;;;6.05;;
14766;SDS011;7475;53.558;9.970;2023-08-30T06:33:34;8.07;;;6.35;;
14766;SDS011;7475;53.558;9.970;2023-08-30T06:36:01;6.13;;;5.50;;
14766;SDS011;7475;53.558;9.970;2023-08-30T06:38:26;8.73;;;5.30;;
14766;SDS011;7475;53.558;9.970;2023-08-30T06:40:51;6.33;;;5.53;;
14766;SDS011;7475;53.558;9.970;2023-08-30T06:43:16;6.20;;;5.60;;
14766;SDS011;7475;53.558;9.970;2023-08-30T06:45:41;6.47;;;5.40;;
14766;SDS011;7475;53.558;9.970;2023-08-30T06:48:07;7.57;;;5.90;;
14766;SDS011;7475;53.558;9.970;2023-08-30T06:50:35;7.05;;;4.93;;
14766;SDS011;7475;53.558;9.970;2023-08-30T06:53:01;6.15;;;4.78;;
14766;SDS011;7475;53.558;9.970;2023-08-30T06:55:27;5.55;;;4.88;;
14766;SDS011;7475;53.558;9.970;2023-08-30T06:57:52;8.50;;;5.45;;
14766;SDS011;7475;53.558;9.970;2023-08-30T07:00:17;7.50;;;5.10;;
14766;SDS011;7475;53.558;9.970;2023-08-30T07:02:43;9.18;;;8.07;;
14766;SDS011;7475;53.558;9.970;2023-08-30T07:05:10;5.80;;;5.18;;
14766;SDS011;7475;53.558;9.970;2023-08-30T07:07:35;6.10;;;5.10;;
14766;SDS011;7475;53.558;9.970;2023-08-30T07:10:01;6.53;;;5.32;;
14766;SDS011;7475;53.558;9.970;2023-08-30T07:12:26;9.13;;;5.05;;
14766;SDS011;7475;53.558;9.970;2023-08-30T07:14:51;6.03;;;5.43;;
14766;SDS011;7475;53.558;9.970;2023-08-30T07:17:17;5.82;;;5.32;;
14766;SDS011;7475;53.558;9.970;2023-08-30T07:19:42;8.90;;;5.97;;
14766;SDS011;7475;53.558;9.970;2023-08-30T07:22:07;6.28;;;5.13;;
14766;SDS011;7475;53.558;9.970;2023-08-30T07:24:32;5.85;;;5.25;;
14766;SDS011;7475;53.558;9.970;2023-08-30T07:26:58;7.45;;;6.43;;
14766;SDS011;7475;53.558;9.970;2023-08-30T07:29:23;7.23;;;5.80;;
14766;SDS011;7475;53.558;9.970;2023-08-30T07:31:48;6.23;;;5.63;;
14766;SDS011;7475;53.558;9.970;2023-08-30T07:34:16;7.60;;;5.97;;
14766;SDS011;7475;53.558;9.970;2023-08-30T07:36:41;7.50;;;5.70;;
14766;SDS011;7475;53.558;9.970;2023-08-30T07:39:06;8.10;;;5.88;;
14766;SDS011;7475;53.558;9.970;2023-08-30T07:41:33;8.03;;;6.67;;
14766;SDS011;7475;53.558;9.970;2023-08-30T07:43:59;9.07;;;6.70;;
14766;SDS011;7475;53.558;9.970;2023-08-30T07:46:24;8.03;;;7.07;;
14766;SDS011;7475;53.558;9.970;2023-08-30T07:48:50;8.70;;;7.18;;
14766;SDS011;7475;53.558;9.970;2023-08-30T07:51:15;9.77;;;8.57;;
14766;SDS011;7475;53.558;9.970;2023-08-30T07:53:41;7.40;;;6.70;;
14766;SDS011;7475;53.558;9.970;2023-08-30T07:56:06;9.63;;;8.63;;
14766;SDS011;7475;53.558;9.970;2023-08-30T07:58:31;10.93;;;9.77;;
14766;SDS011;7475;53.558;9.970;2023-08-30T08:00:56;10.52;;;9.45;;
14766;SDS011;7475;53.558;9.970;2023-08-30T08:03:21;10.73;;;9.33;;
14766;SDS011;7475;53.558;9.970;2023-08-30T08:05:47;10.68;;;9.68;;
14766;SDS011;7475;53.558;9.970;2023-08-30T08:08:12;10.75;;;9.07;;
14766;SDS011;7475;53.558;9.970;2023-08-30T08:10:37;10.10;;;9.07;;
14766;SDS011;7475;53.558;9.970;2023-08-30T08:13:03;9.57;;;8.50;;
14766;SDS011;7475;53.558;9.970;2023-08-30T08:15:31;9.15;;;7.95;;
14766;SDS011;7475;53.558;9.970;2023-08-30T08:17:56;9.32;;;7.90;;
14766;SDS011;7475;53.558;9.970;2023-08-30T08:20:21;8.05;;;7.25;;
14766;SDS011;7475;53.558;9.970;2023-08-30T08:22:47;8.70;;;7.80;;
14766;SDS011;7475;53.558;9.970;2023-08-30T08:25:12;10.57;;;7.00;;
14766;SDS011;7475;53.558;9.970;2023-08-30T08:27:37;7.43;;;6.50;;
14766;SDS011;7475;53.558;9.970;2023-08-30T08:30:03;8.35;;;6.35;;
14766;SDS011;7475;53.558;9.970;2023-08-30T08:32:29;8.55;;;5.90;;
14766;SDS011;7475;53.558;9.970;2023-08-30T08:34:55;7.78;;;5.90;;
14766;SDS011;7475;53.558;9.970;2023-08-30T08:37:20;6.72;;;6.00;;
14766;SDS011;7475;53.558;9.970;2023-08-30T08:39:46;5.50;;;5.00;;
14766;SDS011;7475;53.558;9.970;2023-08-30T08:42:11;8.32;;;4.97;;
14766;SDS011;7475;53.558;9.970;2023-08-30T08:44:36;6.20;;;4.78;;
14766;SDS011;7475;53.558;9.970;2023-08-30T08:47:03;6.80;;;5.20;;
14766;SDS011;7475;53.558;9.970;2023-08-30T08:49:28;7.65;;;5.60;;
14766;SDS011;7475;53.558;9.970;2023-08-30T08:51:55;6.53;;;5.53;;
14766;SDS011;7475;53.558;9.970;2023-08-30T08:54:21;7.38;;;5.07;;
14766;SDS011;7475;53.558;9.970;2023-08-30T08:56:46;6.10;;;4.43;;
14766;SDS011;7475;53.558;9.970;2023-08-30T08:59:12;5.65;;;5.05;;
14766;SDS011;7475;53.558;9.970;2023-08-30T09:01:40;8.45;;;5.45;;
14766;SDS011;7475;53.558;9.970;2023-08-30T09:04:06;8.43;;;5.50;;
14766;SDS011;7475;53.558;9.970;2023-08-30T09:06:32;9.05;;;5.45;;
14766;SDS011;7475;53.558;9.970;2023-08-30T09:08:57;6.05;;;5.00;;
14766;SDS011;7475;53.558;9.970;2023-08-30T09:11:23;9.03;;;6.70;;
14766;SDS011;7475;53.558;9.970;2023-08-30T09:13:48;6.82;;;5.57;;
14766;SDS011;7475;53.558;9.970;2023-08-30T09:16:13;6.40;;;5.37;;
14766;SDS011;7475;53.558;9.970;2023-08-30T09:18:39;6.50;;;5.50;;
14766;SDS011;7475;53.558;9.970;2023-08-30T09:21:05;7.55;;;5.38;;
14766;SDS011;7475;53.558;9.970;2023-08-30T09:23:31;7.78;;;6.43;;
14766;SDS011;7475;53.558;9.970;2023-08-30T09:25:56;8.97;;;5.87;;
14766;SDS011;7475;53.558;9.970;2023-08-30T09:28:21;8.02;;;5.63;;
14766;SDS011;7475;53.558;9.970;2023-08-30T09:30:50;6.43;;;5.38;;
14766;SDS011;7475;53.558;9.970;2023-08-30T09:33:21;7.88;;;6.20;;
14766;SDS011;7475;53.558;9.970;2023-08-30T09:35:47;7.75;;;5.38;;
14766;SDS011;7475;53.558;9.970;2023-08-30T09:38:18;7.10;;;5.50;;
14766;SDS011;7475;53.558;9.970;2023-08-30T09:40:43;6.78;;;5.13;;
14766;SDS011;7475;53.558;9.970;2023-08-30T09:43:09;7.25;;;4.90;;
14766;SDS011;7475;53.558;9.970;2023-08-30T09:45:34;11.30;;;5.32;;
14766;SDS011;7475;53.558;9.970;2023-08-30T09:48:00;9.70;;;4.90;;
14766;SDS011;7475;53.558;9.970;2023-08-30T09:50:26;7.80;;;4.75;;
14766;SDS011;7475;53.558;9.970;2023-08-30T09:52:51;8.88;;;4.88;;
14766;SDS011;7475;53.558;9.970;2023-08-30T09:55:18;5.85;;;4.13;;
14766;SDS011;7475;53.558;9.970;2023-08-30T09:57:43;8.32;;;3.85;;
14766;SDS011;7475;53.558;9.970;2023-08-30T10:00:09;6.93;;;4.03;;
14766;SDS011;7475;53.558;9.970;2023-08-30T10:02:37;4.95;;;3.83;;
14766;SDS011;7475;53.558;9.970;2023-08-30T10:05:02;5.88;;;3.40;;
14766;SDS011;7475;53.558;9.970;2023-08-30T10:07:29;5.70;;;3.17;;
14766;SDS011;7475;53.558;9.970;2023-08-30T10:09:54;5.32;;;3.30;;
14766;SDS011;7475;53.558;9.970;2023-08-30T10:12:21;4.55;;;3.50;;
14766;SDS011;7475;53.558;9.970;2023-08-30T10:14:47;4.93;;;3.25;;
14766;SDS011;7475;53.558;9.970;2023-08-30T10:17:12;5.13;;;3.30;;
14766;SDS011;7475;53.558;9.970;2023-08-30T10:19:39;7.78;;;3.38;;
14766;SDS011;7475;53.558;9.970;2023-08-30T10:22:06;5.00;;;3.15;;
14766;SDS011;7475;53.558;9.970;2023-08-30T10:27:24;4.50;;;3.28;;
14766;SDS011;7475;53.558;9.970;2023-08-30T10:29:50;5.13;;;3.22;;
14766;SDS011;7475;53.558;9.970;2023-08-30T10:32:22;6.25;;;3.20;;
14766;SDS011;7475;53.558;9.970;2023-08-30T10:34:48;4.25;;;3.10;;
14766;SDS011;7475;53.558;9.970;2023-08-30T10:37:14;5.47;;;3.50;;
14766;SDS011;7475;53.558;9.970;2023-08-30T10:39:40;6.97;;;3.00;;
14766;SDS011;7475;53.558;9.970;2023-08-30T10:42:15;3.85;;;3.17;;
14766;SDS011;7475;53.558;9.970;2023-08-30T10:44:47;4.03;;;2.63;;
14766;SDS011;7475;53.558;9.970;2023-08-30T10:47:19;4.05;;;2.63;;
14766;SDS011;7475;53.558;9.970;2023-08-30T10:49:46;4.65;;;3.10;;
14766;SDS011;7475;53.558;9.970;2023-08-30T10:52:11;5.68;;;2.80;;
14766;SDS011;7475;53.558;9.970;2023-08-30T10:54:43;6.95;;;3.17;;
14766;SDS011;7475;53.558;9.970;2023-08-30T10:57:12;8.98;;;3.05;;
14766;SDS011;7475;53.558;9.970;2023-08-30T10:59:38;5.57;;;3.05;;
14766;SDS011;7475;53.558;9.970;2023-08-30T11:02:03;4.80;;;3.27;;
14766;SDS011;7475;53.558;9.970;2023-08-30T11:04:29;4.05;;;3.20;;
14766;SDS011;7475;53.558;9.970;2023-08-30T11:06:54;4.67;;;3.00;;
14766;SDS011;7475;53.558;9.970;2023-08-30T11:09:20;7.32;;;3.20;;
14766;SDS011;7475;53.558;9.970;2023-08-30T11:11:46;3.85;;;3.13;;
14766;SDS011;7475;53.558;9.970;2023-08-30T11:14:12;3.65;;;3.35;;
14766;SDS011;7475;53.558;9.970;2023-08-30T11:16:37;4.43;;;3.30;;
14766;SDS011;7475;53.558;9.970;2023-08-30T11:19:03;3.85;;;3.20;;
14766;SDS011;7475;53.558;9.970;2023-08-30T11:21:32;6.05;;;3.08;;
14766;SDS011;7475;53.558;9.970;2023-08-30T11:23:57;3.72;;;2.92;;
14766;SDS011;7475;53.558;9.970;2023-08-30T11:26:23;5.53;;;2.90;;
14766;SDS011;7475;53.558;9.970;2023-08-30T11:28:48;5.30;;;3.65;;
14766;SDS011;7475;53.558;9.970;2023-08-30T11:31:23;4.05;;;3.30;;
14766;SDS011;7475;53.558;9.970;2023-08-30T11:33:54;4.07;;;3.03;;
14766;SDS011;7475;53.558;9.970;2023-08-30T11:36:21;2.95;;;2.47;;
14766;SDS011;7475;53.558;9.970;2023-08-30T11:38:47;5.65;;;3.58;;
14766;SDS011;7475;53.558;9.970;2023-08-30T11:41:12;3.40;;;3.03;;
14766;SDS011;7475;53.558;9.970;2023-08-30T11:43:37;4.17;;;3.27;;
14766;SDS011;7475;53.558;9.970;2023-08-30T11:46:03;3.70;;;3.30;;
14766;SDS011;7475;53.558;9.970;2023-08-30T11:48:28;4.05;;;2.95;;
14766;SDS011;7475;53.558;9.970;2023-08-30T11:50:54;3.67;;;3.10;;
14766;SDS011;7475;53.558;9.970;2023-08-30T11:53:19;4.90;;;3.17;;
14766;SDS011;7475;53.558;9.970;2023-08-30T11:55:44;5.13;;;3.10;;
14766;SDS011;7475;53.558;9.970;2023-08-30T11:58:10;4.95;;;3.42;;
14766;SDS011;7475;53.558;9.970;2023-08-30T12:00:35;3.93;;;2.67;;
14766;SDS011;7475;53.558;9.970;2023-08-30T12:03:00;4.22;;;3.38;;
14766;SDS011;7475;53.558;9.970;2023-08-30T12:05:26;4.32;;;3.20;;
14766;SDS011;7475;53.558;9.970;2023-08-30T12:07:51;3.90;;;3.37;;
14766;SDS011;7475;53.558;9.970;2023-08-30T12:10:17;4.28;;;3.47;;
14766;SDS011;7475;53.558;9.970;2023-08-30T12:12:44;5.45;;;3.72;;
14766;SDS011;7475;53.558;9.970;2023-08-30T12:15:10;5.07;;;3.50;;
14766;SDS011;7475;53.558;9.970;2023-08-30T12:17:35;4.47;;;3.58;;
14766;SDS011;7475;53.558;9.970;2023-08-30T12:20:01;4.13;;;3.33;;
14766;SDS011;7475;53.558;9.970;2023-08-30T12:25:03;5.15;;;3.38;;
14766;SDS011;7475;53.558;9.970;2023-08-30T12:27:28;8.05;;;3.35;;
14766;SDS011;7475;53.558;9.970;2023-08-30T12:29:54;4.57;;;3.90;;
14766;SDS011;7475;53.558;9.970;2023-08-30T12:32:19;6.53;;;4.17;;
14766;SDS011;7475;53.558;9.970;2023-08-30T12:34:44;4.57;;;3.87;;
14766;SDS011;7475;53.558;9.970;2023-08-30T12:37:09;5.83;;;3.90;;
14766;SDS011;7475;53.558;9.970;2023-08-30T12:39:34;5.47;;;3.97;;
14766;SDS011;7475;53.558;9.970;2023-08-30T12:42:00;4.13;;;3.60;;
14766;SDS011;7475;53.558;9.970;2023-08-30T12:44:25;6.00;;;3.85;;
14766;SDS011;7475;53.558;9.970;2023-08-30T12:46:50;4.57;;;4.17;;
14766;SDS011;7475;53.558;9.970;2023-08-30T12:49:15;5.27;;;3.87;;
14766;SDS011;7475;53.558;9.970;2023-08-30T12:51:41;5.80;;;4.40;;
14766;SDS011;7475;53.558;9.970;2023-08-30T12:54:06;6.50;;;4.00;;
14766;SDS011;7475;53.558;9.970;2023-08-30T12:56:31;4.00;;;3.42;;
14766;SDS011;7475;53.558;9.970;2023-08-30T12:58:56;5.93;;;3.50;;
14766;SDS011;7475;53.558;9.970;2023-08-30T13:01:21;3.90;;;3.40;;
14766;SDS011;7475;53.558;9.970;2023-08-30T13:03:49;4.65;;;3.20;;
14766;SDS011;7475;53.558;9.970;2023-08-30T13:06:14;6.03;;;3.30;;
14766;SDS011;7475;53.558;9.970;2023-08-30T13:08:39;5.13;;;3.40;;
14766;SDS011;7475;53.558;9.970;2023-08-30T13:11:04;3.40;;;3.10;;
14766;SDS011;7475;53.558;9.970;2023-08-30T13:13:30;4.20;;;3.23;;
14766;SDS011;7475;53.558;9.970;2023-08-30T13:15:55;4.03;;;3.63;;
14766;SDS011;7475;53.558;9.970;2023-08-30T13:18:20;5.82;;;3.90;;
14766;SDS011;7475;53.558;9.970;2023-08-30T13:20:46;5.53;;;3.40;;
14766;SDS011;7475;53.558;9.970;2023-08-30T13:23:11;4.07;;;3.40;;
14766;SDS011;7475;53.558;9.970;2023-08-30T13:25:40;3.83;;;3.25;;
14766;SDS011;7475;53.558;9.970;2023-08-30T13:28:05;3.72;;;3.28;;
14766;SDS011;7475;53.558;9.970;2023-08-30T13:30:30;3.90;;;3.40;;
14766;SDS011;7475;53.558;9.970;2023-08-30T13:32:56;5.25;;;3.00;;
14766;SDS011;7475;53.558;9.970;2023-08-30T13:35:21;4.25;;;3.47;;
14766;SDS011;7475;53.558;9.970;2023-08-30T13:37:46;4.53;;;3.10;;
14766;SDS011;7475;53.558;9.970;2023-08-30T13:40:11;6.47;;;3.60;;
14766;SDS011;7475;53.558;9.970;2023-08-30T13:42:36;4.50;;;3.27;;
14766;SDS011;7475;53.558;9.970;2023-08-30T13:45:02;4.13;;;3.27;;
14766;SDS011;7475;53.558;9.970;2023-08-30T13:47:27;6.80;;;2.80;;
14766;SDS011;7475;53.558;9.970;2023-08-30T13:49:53;4.83;;;2.87;;
14766;SDS011;7475;53.558;9.970;2023-08-30T13:52:18;3.55;;;2.75;;
14766;SDS011;7475;53.558;9.970;2023-08-30T13:54:43;3.80;;;2.73;;
14766;SDS011;7475;53.558;9.970;2023-08-30T13:57:08;3.45;;;2.97;;
14766;SDS011;7475;53.558;9.970;2023-08-30T13:59:34;4.75;;;2.67;;
14766;SDS011;7475;53.558;9.970;2023-08-30T14:02:00;6.95;;;2.78;;
14766;SDS011;7475;53.558;9.970;2023-08-30T14:04:26;5.32;;;2.83;;
14766;SDS011;7475;53.558;9.970;2023-08-30T14:06:51;4.77;;;2.67;;
14766;SDS011;7475;53.558;9.970;2023-08-30T14:09:16;4.27;;;2.97;;
14766;SDS011;7475;53.558;9.970;2023-08-30T14:11:41;6.22;;;3.72;;
14766;SDS011;7475;53.558;9.970;2023-08-30T14:14:07;3.97;;;2.90;;
14766;SDS011;7475;53.558;9.970;2023-08-30T14:16:32;3.55;;;2.90;;
14766;SDS011;7475;53.558;9.970;2023-08-30T14:18:57;5.03;;;2.85;;
14766;SDS011;7475;53.558;9.970;2023-08-30T14:21:25;3.35;;;2.88;;
14766;SDS011;7475;53.558;9.970;2023-08-30T14:23:50;5.10;;;3.00;;
14766;SDS011;7475;53.558;9.970;2023-08-30T14:26:15;4.47;;;2.70;;
14766;SDS011;7475;53.558;9.970;2023-08-30T14:28:40;4.23;;;2.90;;
14766;SDS011;7475;53.558;9.970;2023-08-30T14:31:09;3.43;;;2.97;;
14766;SDS011;7475;53.558;9.970;2023-08-30T14:33:35;5.20;;;3.28;;
14766;SDS011;7475;53.558;9.970;2023-08-30T14:36:00;4.40;;;3.30;;
14766;SDS011;7475;53.558;9.970;2023-08-30T14:38:29;3.58;;;2.63;;
14766;SDS011;7475;53.558;9.970;2023-08-30T14:40:57;12.20;;;10.82;;
14766;SDS011;7475;53.558;9.970;2023-08-30T14:43:23;9.63;;;5.13;;
14766;SDS011;7475;53.558;9.970;2023-08-30T14:45:48;4.30;;;3.30;;
14766;SDS011;7475;53.558;9.970;2023-08-30T14:48:14;4.13;;;2.80;;
14766;SDS011;7475;53.558;9.970;2023-08-30T14:50:39;3.78;;;3.05;;
14766;SDS011;7475;53.558;9.970;2023-08-30T14:53:04;4.43;;;3.33;;
14766;SDS011;7475;53.558;9.970;2023-08-30T14:55:30;5.82;;;3.05;;
14766;SDS011;7475;53.558;9.970;2023-08-30T14:57:56;4.43;;;2.65;;